sensor_id;sensor_type;location;lat;lon;timestamp;pressure;altitude;pressure_sealevel;temperature;humidity
81905;BME280;71370;-33.792;151.032;2023-11-21T00:00:52;101308.81;;;21.58;69.30
81905;BME280;71370;-33.792;151.032;2023-11-21T00:01:59;101309.04;;;21.58;69.49
81905;BME280;71370;-33.792;151.032;2023-11-21T00:03:06;101310.27;;;21.58;69.57
81905;BME280;71370;-33.792;151.032;2023-11-21T00:04:14;101306.55;;;21.57;69.56
81905;BME280;71370;-33.792;151.032;2023-11-21T00:05:21;101305.66;;;21.57;69.74
81905;BME280;71370;-33.792;151.032;2023-11-21T00:06:29;101302.95;;;21.57;69.60
81905;BME280;71370;-33.792;151.032;2023-11-21T00:07:37;101304.18;;;21.58;69.80
81905;BME280;71370;-33.792;151.032;2023-11-21T00:08:44;101303.82;;;21.58;69.84
81905;BME280;71370;-33.792;151.032;2023-11-21T00:09:51;101303.63;;;21.58;69.94
81905;BME280;71370;-33.792;151.032;2023-11-21T00:10:58;101300.60;;;21.58;69.90
81905;BME280;71370;-33.792;151.032;2023-11-21T00:12:07;101304.20;;;21.58;70.01
81905;BME280;71370;-33.792;151.032;2023-11-21T00:13:16;101299.98;;;21.56;70.10
81905;BME280;71370;-33.792;151.032;2023-11-21T00:14:24;101297.14;;;21.56;69.87
81905;BME280;71370;-33.792;151.032;2023-11-21T00:15:31;101299.50;;;21.55;69.98
81905;BME280;71370;-33.792;151.032;2023-11-21T00:16:38;101297.06;;;21.54;70.02
81905;BME280;71370;-33.792;151.032;2023-11-21T00:17:46;101300.05;;;21.51;69.83
81905;BME280;71370;-33.792;151.032;2023-11-21T00:18:53;101299.80;;;21.49;69.83
81905;BME280;71370;-33.792;151.032;2023-11-21T00:20:00;101294.14;;;21.48;69.82
81905;BME280;71370;-33.792;151.032;2023-11-21T00:21:07;101299.54;;;21.47;69.99
81905;BME280;71370;-33.792;151.032;2023-11-21T00:22:15;101293.67;;;21.47;70.06
81905;BME280;71370;-33.792;151.032;2023-11-21T00:23:22;101294.56;;;21.47;70.16
81905;BME280;71370;-33.792;151.032;2023-11-21T00:24:29;101292.33;;;21.48;70.01
81905;BME280;71370;-33.792;151.032;2023-11-21T00:25:36;101292.61;;;21.50;69.88
81905;BME280;71370;-33.792;151.032;2023-11-21T00:26:44;101289.83;;;21.52;69.93
81905;BME280;71370;-33.792;151.032;2023-11-21T00:27:51;101291.71;;;21.53;69.55
81905;BME280;71370;-33.792;151.032;2023-11-21T00:28:58;101284.73;;;21.53;69.06
81905;BME280;71370;-33.792;151.032;2023-11-21T00:30:05;101286.64;;;21.54;69.27
81905;BME280;71370;-33.792;151.032;2023-11-21T00:31:13;101284.06;;;21.56;69.72
81905;BME280;71370;-33.792;151.032;2023-11-21T00:32:20;101284.38;;;21.57;69.52
81905;BME280;71370;-33.792;151.032;2023-11-21T00:33:28;101283.45;;;21.57;69.42
81905;BME280;71370;-33.792;151.032;2023-11-21T00:34:35;101281.90;;;21.56;69.58
81905;BME280;71370;-33.792;151.032;2023-11-21T00:35:42;101281.59;;;21.55;69.73
81905;BME280;71370;-33.792;151.032;2023-11-21T00:36:50;101280.79;;;21.54;69.65
81905;BME280;71370;-33.792;151.032;2023-11-21T00:37:57;101279.44;;;21.52;69.81
81905;BME280;71370;-33.792;151.032;2023-11-21T00:39:04;101277.34;;;21.51;70.14
81905;BME280;71370;-33.792;151.032;2023-11-21T00:40:12;101277.23;;;21.50;70.02
81905;BME280;71370;-33.792;151.032;2023-11-21T00:41:21;101278.35;;;21.49;70.10
81905;BME280;71370;-33.792;151.032;2023-11-21T00:42:28;101276.46;;;21.47;70.02
81905;BME280;71370;-33.792;151.032;2023-11-21T00:43:36;101274.80;;;21.45;70.15
81905;BME280;71370;-33.792;151.032;2023-11-21T00:44:43;101274.86;;;21.43;69.91
81905;BME280;71370;-33.792;151.032;2023-11-21T00:45:50;101279.00;;;21.42;69.86
81905;BME280;71370;-33.792;151.032;2023-11-21T00:46:57;101275.88;;;21.41;69.85
81905;BME280;71370;-33.792;151.032;2023-11-21T00:48:05;101274.85;;;21.39;69.94
81905;BME280;71370;-33.792;151.032;2023-11-21T00:49:12;101275.00;;;21.40;69.95
81905;BME280;71370;-33.792;151.032;2023-11-21T00:50:20;101273.92;;;21.40;69.66
81905;BME280;71370;-33.792;151.032;2023-11-21T00:51:27;101273.80;;;21.43;69.73
81905;BME280;71370;-33.792;151.032;2023-11-21T00:52:35;101274.23;;;21.45;69.86
81905;BME280;71370;-33.792;151.032;2023-11-21T00:53:42;101274.70;;;21.47;69.66
81905;BME280;71370;-33.792;151.032;2023-11-21T00:54:49;101272.46;;;21.49;69.52
81905;BME280;71370;-33.792;151.032;2023-11-21T00:55:56;101270.41;;;21.50;69.50
81905;BME280;71370;-33.792;151.032;2023-11-21T00:57:04;101267.40;;;21.53;69.65
81905;BME280;71370;-33.792;151.032;2023-11-21T00:58:11;101262.26;;;21.56;69.77
81905;BME280;71370;-33.792;151.032;2023-11-21T00:59:18;101263.30;;;21.60;69.70
81905;BME280;71370;-33.792;151.032;2023-11-21T01:00:25;101260.95;;;21.64;69.35
81905;BME280;71370;-33.792;151.032;2023-11-21T01:01:32;101263.04;;;21.68;69.44
81905;BME280;71370;-33.792;151.032;2023-11-21T01:02:39;101261.95;;;21.72;69.11
81905;BME280;71370;-33.792;151.032;2023-11-21T01:03:47;101261.54;;;21.76;68.76
81905;BME280;71370;-33.792;151.032;2023-11-21T01:04:54;101265.61;;;21.81;68.50
81905;BME280;71370;-33.792;151.032;2023-11-21T01:06:02;101261.30;;;21.85;68.25
81905;BME280;71370;-33.792;151.032;2023-11-21T01:07:09;101254.80;;;21.89;68.24
81905;BME280;71370;-33.792;151.032;2023-11-21T01:08:16;101258.81;;;21.94;68.01
81905;BME280;71370;-33.792;151.032;2023-11-21T01:09:24;101256.33;;;22.01;68.04
81905;BME280;71370;-33.792;151.032;2023-11-21T01:10:32;101255.81;;;22.07;68.06
81905;BME280;71370;-33.792;151.032;2023-11-21T01:11:40;101255.77;;;22.11;68.21
81905;BME280;71370;-33.792;151.032;2023-11-21T01:12:49;101257.81;;;22.16;68.19
81905;BME280;71370;-33.792;151.032;2023-11-21T01:13:56;101256.19;;;22.20;67.97
81905;BME280;71370;-33.792;151.032;2023-11-21T01:15:06;101255.98;;;22.24;67.66
81905;BME280;71370;-33.792;151.032;2023-11-21T01:16:14;101257.82;;;22.27;67.31
81905;BME280;71370;-33.792;151.032;2023-11-21T01:17:21;101255.37;;;22.29;67.25
81905;BME280;71370;-33.792;151.032;2023-11-21T01:18:29;101253.19;;;22.30;67.11
81905;BME280;71370;-33.792;151.032;2023-11-21T01:19:37;101253.35;;;22.30;66.90
81905;BME280;71370;-33.792;151.032;2023-11-21T01:20:44;101255.88;;;22.30;67.28
81905;BME280;71370;-33.792;151.032;2023-11-21T01:21:53;101250.92;;;22.29;67.09
81905;BME280;71370;-33.792;151.032;2023-11-21T01:23:00;101252.05;;;22.28;67.31
81905;BME280;71370;-33.792;151.032;2023-11-21T01:24:08;101250.09;;;22.28;67.22
81905;BME280;71370;-33.792;151.032;2023-11-21T01:25:16;101250.28;;;22.27;67.68
81905;BME280;71370;-33.792;151.032;2023-11-21T01:26:23;101246.61;;;22.29;67.76
81905;BME280;71370;-33.792;151.032;2023-11-21T01:27:31;101249.73;;;22.31;67.96
81905;BME280;71370;-33.792;151.032;2023-11-21T01:28:38;101248.73;;;22.33;67.90
81905;BME280;71370;-33.792;151.032;2023-11-21T01:29:46;101244.73;;;22.34;67.78
81905;BME280;71370;-33.792;151.032;2023-11-21T01:30:54;101245.86;;;22.33;67.56
81905;BME280;71370;-33.792;151.032;2023-11-21T01:32:03;101244.11;;;22.32;67.72
81905;BME280;71370;-33.792;151.032;2023-11-21T01:33:10;101245.80;;;22.34;68.25
81905;BME280;71370;-33.792;151.032;2023-11-21T01:34:18;101245.63;;;22.34;68.20
81905;BME280;71370;-33.792;151.032;2023-11-21T01:35:25;101245.26;;;22.34;68.00
81905;BME280;71370;-33.792;151.032;2023-11-21T01:36:33;101249.17;;;22.34;68.28
81905;BME280;71370;-33.792;151.032;2023-11-21T01:37:41;101241.79;;;22.35;68.22
81905;BME280;71370;-33.792;151.032;2023-11-21T01:38:49;101245.27;;;22.37;67.99
81905;BME280;71370;-33.792;151.032;2023-11-21T01:39:56;101243.33;;;22.40;68.17
81905;BME280;71370;-33.792;151.032;2023-11-21T01:41:04;101243.29;;;22.44;68.55
81905;BME280;71370;-33.792;151.032;2023-11-21T01:43:17;101243.00;;;22.55;68.46
81905;BME280;71370;-33.792;151.032;2023-11-21T01:44:25;101235.08;;;22.59;68.11
81905;BME280;71370;-33.792;151.032;2023-11-21T01:45:34;101233.40;;;22.64;67.89
81905;BME280;71370;-33.792;151.032;2023-11-21T01:46:41;101232.33;;;22.67;68.01
81905;BME280;71370;-33.792;151.032;2023-11-21T01:47:49;101230.69;;;22.70;68.14
81905;BME280;71370;-33.792;151.032;2023-11-21T01:48:58;101232.37;;;22.76;68.53
81905;BME280;71370;-33.792;151.032;2023-11-21T01:50:07;101230.52;;;22.80;68.05
81905;BME280;71370;-33.792;151.032;2023-11-21T01:51:16;101230.98;;;22.84;67.46
81905;BME280;71370;-33.792;151.032;2023-11-21T01:52:25;101231.08;;;22.86;67.31
81905;BME280;71370;-33.792;151.032;2023-11-21T01:53:32;101232.23;;;22.87;67.29
81905;BME280;71370;-33.792;151.032;2023-11-21T01:54:41;101229.59;;;22.87;67.04
81905;BME280;71370;-33.792;151.032;2023-11-21T01:55:49;101228.95;;;22.85;66.74
81905;BME280;71370;-33.792;151.032;2023-11-21T01:56:59;101225.27;;;22.84;66.81
81905;BME280;71370;-33.792;151.032;2023-11-21T01:58:09;101226.67;;;22.84;67.12
81905;BME280;71370;-33.792;151.032;2023-11-21T01:59:21;101226.56;;;22.87;67.34
81905;BME280;71370;-33.792;151.032;2023-11-21T02:00:30;101230.80;;;22.90;67.33
81905;BME280;71370;-33.792;151.032;2023-11-21T02:01:37;101226.52;;;22.93;67.37
81905;BME280;71370;-33.792;151.032;2023-11-21T02:02:46;101228.05;;;22.95;67.07
81905;BME280;71370;-33.792;151.032;2023-11-21T02:03:53;101224.27;;;22.95;66.28
81905;BME280;71370;-33.792;151.032;2023-11-21T02:05:00;101228.04;;;22.95;66.34
81905;BME280;71370;-33.792;151.032;2023-11-21T02:06:08;101221.96;;;22.95;66.51
81905;BME280;71370;-33.792;151.032;2023-11-21T02:07:15;101223.58;;;22.95;66.45
81905;BME280;71370;-33.792;151.032;2023-11-21T02:08:24;101223.92;;;22.95;66.13
81905;BME280;71370;-33.792;151.032;2023-11-21T02:09:33;101228.44;;;22.94;65.54
81905;BME280;71370;-33.792;151.032;2023-11-21T02:10:40;101222.95;;;22.93;64.91
81905;BME280;71370;-33.792;151.032;2023-11-21T02:11:47;101225.14;;;22.93;64.96
81905;BME280;71370;-33.792;151.032;2023-11-21T02:12:56;101224.70;;;22.94;64.77
81905;BME280;71370;-33.792;151.032;2023-11-21T02:14:04;101223.23;;;22.94;65.04
81905;BME280;71370;-33.792;151.032;2023-11-21T02:15:14;101222.27;;;22.92;65.12
81905;BME280;71370;-33.792;151.032;2023-11-21T02:16:21;101226.67;;;22.91;64.49
81905;BME280;71370;-33.792;151.032;2023-11-21T02:17:29;101226.66;;;22.88;64.57
81905;BME280;71370;-33.792;151.032;2023-11-21T02:18:36;101226.18;;;22.87;64.77
81905;BME280;71370;-33.792;151.032;2023-11-21T02:19:44;101225.38;;;22.88;64.60
81905;BME280;71370;-33.792;151.032;2023-11-21T02:20:53;101228.40;;;22.89;64.68
81905;BME280;71370;-33.792;151.032;2023-11-21T02:22:01;101222.55;;;22.90;64.77
81905;BME280;71370;-33.792;151.032;2023-11-21T02:23:12;101225.49;;;22.92;64.83
81905;BME280;71370;-33.792;151.032;2023-11-21T02:24:23;101220.15;;;22.95;64.83
81905;BME280;71370;-33.792;151.032;2023-11-21T02:25:31;101223.43;;;23.00;64.83
81905;BME280;71370;-33.792;151.032;2023-11-21T02:26:39;101222.86;;;23.05;64.37
81905;BME280;71370;-33.792;151.032;2023-11-21T02:27:47;101221.37;;;23.08;64.62
81905;BME280;71370;-33.792;151.032;2023-11-21T02:28:54;101225.95;;;23.13;64.49
81905;BME280;71370;-33.792;151.032;2023-11-21T02:30:01;101227.30;;;23.18;64.89
81905;BME280;71370;-33.792;151.032;2023-11-21T02:31:10;101226.71;;;23.22;64.39
81905;BME280;71370;-33.792;151.032;2023-11-21T02:32:18;101227.65;;;23.24;64.18
81905;BME280;71370;-33.792;151.032;2023-11-21T02:33:29;101225.48;;;23.27;63.93
81905;BME280;71370;-33.792;151.032;2023-11-21T02:34:36;101223.87;;;23.33;64.03
81905;BME280;71370;-33.792;151.032;2023-11-21T02:35:44;101223.64;;;23.40;63.17
81905;BME280;71370;-33.792;151.032;2023-11-21T02:36:51;101219.89;;;23.46;63.18
81905;BME280;71370;-33.792;151.032;2023-11-21T02:37:58;101219.59;;;23.50;62.99
81905;BME280;71370;-33.792;151.032;2023-11-21T02:39:06;101222.23;;;23.55;62.75
81905;BME280;71370;-33.792;151.032;2023-11-21T02:40:14;101216.24;;;23.59;61.74
81905;BME280;71370;-33.792;151.032;2023-11-21T02:41:24;101216.71;;;23.63;61.79
81905;BME280;71370;-33.792;151.032;2023-11-21T02:42:32;101215.09;;;23.66;62.06
81905;BME280;71370;-33.792;151.032;2023-11-21T02:43:39;101217.30;;;23.71;62.23
81905;BME280;71370;-33.792;151.032;2023-11-21T02:44:46;101212.39;;;23.75;61.99
81905;BME280;71370;-33.792;151.032;2023-11-21T02:45:53;101211.98;;;23.79;62.09
81905;BME280;71370;-33.792;151.032;2023-11-21T02:47:01;101211.73;;;23.83;62.22
81905;BME280;71370;-33.792;151.032;2023-11-21T02:48:08;101209.89;;;23.87;61.80
81905;BME280;71370;-33.792;151.032;2023-11-21T02:49:15;101207.74;;;23.90;61.90
81905;BME280;71370;-33.792;151.032;2023-11-21T02:50:22;101210.17;;;23.91;62.27
81905;BME280;71370;-33.792;151.032;2023-11-21T02:51:30;101209.30;;;23.94;62.30
81905;BME280;71370;-33.792;151.032;2023-11-21T02:52:37;101211.75;;;23.95;62.41
81905;BME280;71370;-33.792;151.032;2023-11-21T02:53:46;101208.61;;;23.99;63.03
81905;BME280;71370;-33.792;151.032;2023-11-21T02:54:53;101213.45;;;24.05;62.92
81905;BME280;71370;-33.792;151.032;2023-11-21T02:56:00;101211.77;;;24.09;63.27
81905;BME280;71370;-33.792;151.032;2023-11-21T02:57:07;101205.92;;;24.16;63.32
81905;BME280;71370;-33.792;151.032;2023-11-21T02:58:14;101206.54;;;24.29;63.18
81905;BME280;71370;-33.792;151.032;2023-11-21T02:59:22;101206.77;;;24.42;62.80
81905;BME280;71370;-33.792;151.032;2023-11-21T03:00:29;101204.85;;;24.53;61.89
81905;BME280;71370;-33.792;151.032;2023-11-21T03:01:36;101199.33;;;24.55;60.95
81905;BME280;71370;-33.792;151.032;2023-11-21T03:02:43;101199.55;;;24.55;60.42
81905;BME280;71370;-33.792;151.032;2023-11-21T03:03:51;101201.68;;;24.55;60.82
81905;BME280;71370;-33.792;151.032;2023-11-21T03:04:58;101198.58;;;24.56;60.75
81905;BME280;71370;-33.792;151.032;2023-11-21T03:06:06;101199.31;;;24.55;60.23
81905;BME280;71370;-33.792;151.032;2023-11-21T03:07:15;101199.58;;;24.54;59.65
81905;BME280;71370;-33.792;151.032;2023-11-21T03:08:22;101196.06;;;24.53;59.58
81905;BME280;71370;-33.792;151.032;2023-11-21T03:09:29;101194.64;;;24.53;59.63
81905;BME280;71370;-33.792;151.032;2023-11-21T03:10:36;101190.52;;;24.53;59.67
81905;BME280;71370;-33.792;151.032;2023-11-21T03:11:44;101189.10;;;24.55;59.19
81905;BME280;71370;-33.792;151.032;2023-11-21T03:12:51;101187.45;;;24.66;58.62
81905;BME280;71370;-33.792;151.032;2023-11-21T03:13:58;101182.85;;;24.81;58.72
81905;BME280;71370;-33.792;151.032;2023-11-21T03:15:07;101176.79;;;24.89;58.29
81905;BME280;71370;-33.792;151.032;2023-11-21T03:16:16;101174.45;;;24.95;58.03
81905;BME280;71370;-33.792;151.032;2023-11-21T03:17:23;101175.96;;;25.01;58.16
81905;BME280;71370;-33.792;151.032;2023-11-21T03:18:30;101174.38;;;25.06;58.32
81905;BME280;71370;-33.792;151.032;2023-11-21T03:19:38;101172.42;;;25.09;58.13
81905;BME280;71370;-33.792;151.032;2023-11-21T03:20:45;101176.48;;;25.10;57.64
81905;BME280;71370;-33.792;151.032;2023-11-21T03:21:52;101175.84;;;25.11;57.82
81905;BME280;71370;-33.792;151.032;2023-11-21T03:23:02;101173.67;;;25.09;57.27
81905;BME280;71370;-33.792;151.032;2023-11-21T03:24:11;101171.98;;;25.07;57.00
81905;BME280;71370;-33.792;151.032;2023-11-21T03:25:18;101167.59;;;25.05;57.25
81905;BME280;71370;-33.792;151.032;2023-11-21T03:26:25;101168.73;;;25.10;57.37
81905;BME280;71370;-33.792;151.032;2023-11-21T03:27:32;101164.20;;;25.15;57.26
81905;BME280;71370;-33.792;151.032;2023-11-21T03:28:39;101164.25;;;25.26;57.51
81905;BME280;71370;-33.792;151.032;2023-11-21T03:29:47;101157.99;;;25.36;57.59
81905;BME280;71370;-33.792;151.032;2023-11-21T03:30:54;101155.20;;;25.45;57.17
81905;BME280;71370;-33.792;151.032;2023-11-21T03:32:02;101152.84;;;25.53;56.64
81905;BME280;71370;-33.792;151.032;2023-11-21T03:33:09;101153.42;;;25.60;55.84
81905;BME280;71370;-33.792;151.032;2023-11-21T03:34:23;101153.55;;;25.63;55.56
81905;BME280;71370;-33.792;151.032;2023-11-21T03:35:31;101152.13;;;25.69;55.26
81905;BME280;71370;-33.792;151.032;2023-11-21T03:36:39;101149.79;;;25.73;54.68
81905;BME280;71370;-33.792;151.032;2023-11-21T03:37:46;101149.39;;;25.77;54.69
81905;BME280;71370;-33.792;151.032;2023-11-21T03:38:53;101146.76;;;25.80;54.56
81905;BME280;71370;-33.792;151.032;2023-11-21T03:40:01;101143.91;;;25.88;54.76
81905;BME280;71370;-33.792;151.032;2023-11-21T03:41:10;101147.90;;;25.98;54.64
81905;BME280;71370;-33.792;151.032;2023-11-21T03:42:17;101144.48;;;26.05;54.11
81905;BME280;71370;-33.792;151.032;2023-11-21T03:43:24;101140.95;;;26.17;53.73
81905;BME280;71370;-33.792;151.032;2023-11-21T03:44:31;101138.61;;;26.29;52.82
81905;BME280;71370;-33.792;151.032;2023-11-21T03:45:38;101138.87;;;26.40;52.54
81905;BME280;71370;-33.792;151.032;2023-11-21T03:46:46;101134.56;;;26.52;52.46
81905;BME280;71370;-33.792;151.032;2023-11-21T03:47:53;101130.57;;;26.65;52.76
81905;BME280;71370;-33.792;151.032;2023-11-21T03:49:00;101128.97;;;26.79;52.32
81905;BME280;71370;-33.792;151.032;2023-11-21T03:50:08;101128.40;;;26.94;52.04
81905;BME280;71370;-33.792;151.032;2023-11-21T03:51:15;101127.53;;;27.05;51.57
81905;BME280;71370;-33.792;151.032;2023-11-21T03:52:22;101125.36;;;27.17;51.62
81905;BME280;71370;-33.792;151.032;2023-11-21T03:53:29;101124.16;;;27.31;51.63
81905;BME280;71370;-33.792;151.032;2023-11-21T03:54:36;101122.38;;;27.44;51.42
81905;BME280;71370;-33.792;151.032;2023-11-21T03:55:43;101125.50;;;27.55;50.34
81905;BME280;71370;-33.792;151.032;2023-11-21T03:56:50;101122.20;;;27.63;49.70
81905;BME280;71370;-33.792;151.032;2023-11-21T03:57:58;101120.98;;;27.69;49.87
81905;BME280;71370;-33.792;151.032;2023-11-21T03:59:05;101122.69;;;27.74;50.24
81905;BME280;71370;-33.792;151.032;2023-11-21T04:00:13;101116.17;;;27.84;49.97
81905;BME280;71370;-33.792;151.032;2023-11-21T04:01:23;101107.10;;;27.91;49.85
81905;BME280;71370;-33.792;151.032;2023-11-21T04:02:30;101104.14;;;27.99;50.25
81905;BME280;71370;-33.792;151.032;2023-11-21T04:03:38;101101.48;;;28.07;50.89
81905;BME280;71370;-33.792;151.032;2023-11-21T04:04:46;101098.84;;;28.15;50.16
81905;BME280;71370;-33.792;151.032;2023-11-21T04:05:53;101096.59;;;28.23;49.01
81905;BME280;71370;-33.792;151.032;2023-11-21T04:07:00;101097.20;;;28.26;47.75
81905;BME280;71370;-33.792;151.032;2023-11-21T04:08:07;101097.79;;;28.26;47.85
81905;BME280;71370;-33.792;151.032;2023-11-21T04:09:14;101096.83;;;28.26;48.13
81905;BME280;71370;-33.792;151.032;2023-11-21T04:10:22;101095.84;;;28.27;47.72
81905;BME280;71370;-33.792;151.032;2023-11-21T04:11:29;101101.02;;;28.26;47.50
81905;BME280;71370;-33.792;151.032;2023-11-21T04:12:36;101098.16;;;28.25;47.13
81905;BME280;71370;-33.792;151.032;2023-11-21T04:13:43;101093.77;;;28.22;47.46
81905;BME280;71370;-33.792;151.032;2023-11-21T04:14:52;101089.61;;;28.24;47.60
81905;BME280;71370;-33.792;151.032;2023-11-21T04:15:59;101094.81;;;28.24;46.79
81905;BME280;71370;-33.792;151.032;2023-11-21T04:17:09;101090.35;;;28.19;46.66
81905;BME280;71370;-33.792;151.032;2023-11-21T04:18:16;101088.71;;;28.13;47.16
81905;BME280;71370;-33.792;151.032;2023-11-21T04:19:23;101086.60;;;28.10;47.50
81905;BME280;71370;-33.792;151.032;2023-11-21T04:20:30;101082.12;;;28.12;47.64
81905;BME280;71370;-33.792;151.032;2023-11-21T04:21:38;101082.01;;;28.15;47.97
81905;BME280;71370;-33.792;151.032;2023-11-21T04:22:45;101081.61;;;28.18;48.05
81905;BME280;71370;-33.792;151.032;2023-11-21T04:23:52;101084.11;;;28.18;47.96
81905;BME280;71370;-33.792;151.032;2023-11-21T04:24:59;101086.11;;;28.16;47.52
81905;BME280;71370;-33.792;151.032;2023-11-21T04:26:07;101084.70;;;28.13;47.90
81905;BME280;71370;-33.792;151.032;2023-11-21T04:27:14;101077.98;;;28.03;47.64
81905;BME280;71370;-33.792;151.032;2023-11-21T04:28:24;101075.33;;;27.86;47.91
81905;BME280;71370;-33.792;151.032;2023-11-21T04:29:31;101079.56;;;27.72;48.45
81905;BME280;71370;-33.792;151.032;2023-11-21T04:30:38;101075.71;;;27.56;48.73
81905;BME280;71370;-33.792;151.032;2023-11-21T04:31:46;101077.19;;;27.42;48.82
81905;BME280;71370;-33.792;151.032;2023-11-21T04:32:55;101073.13;;;27.32;49.19
81905;BME280;71370;-33.792;151.032;2023-11-21T04:34:02;101074.95;;;27.30;49.56
81905;BME280;71370;-33.792;151.032;2023-11-21T04:35:10;101072.14;;;27.35;49.31
81905;BME280;71370;-33.792;151.032;2023-11-21T04:36:18;101070.41;;;27.36;49.04
81905;BME280;71370;-33.792;151.032;2023-11-21T04:37:26;101065.33;;;27.35;49.07
81905;BME280;71370;-33.792;151.032;2023-11-21T04:38:33;101062.06;;;27.42;49.33
81905;BME280;71370;-33.792;151.032;2023-11-21T04:39:40;101061.46;;;27.51;49.81
81905;BME280;71370;-33.792;151.032;2023-11-21T04:40:47;101062.30;;;27.64;49.73
81905;BME280;71370;-33.792;151.032;2023-11-21T04:41:54;101058.98;;;27.76;49.52
81905;BME280;71370;-33.792;151.032;2023-11-21T04:43:01;101058.95;;;27.85;49.89
81905;BME280;71370;-33.792;151.032;2023-11-21T04:44:10;101055.47;;;27.86;49.37
81905;BME280;71370;-33.792;151.032;2023-11-21T04:45:17;101059.70;;;27.76;49.67
81905;BME280;71370;-33.792;151.032;2023-11-21T04:46:24;101059.60;;;27.66;50.38
81905;BME280;71370;-33.792;151.032;2023-11-21T04:47:31;101058.17;;;27.54;50.05
81905;BME280;71370;-33.792;151.032;2023-11-21T04:48:38;101056.48;;;27.44;50.41
81905;BME280;71370;-33.792;151.032;2023-11-21T04:49:46;101056.91;;;27.32;50.60
81905;BME280;71370;-33.792;151.032;2023-11-21T04:50:53;101055.34;;;27.24;50.98
81905;BME280;71370;-33.792;151.032;2023-11-21T04:52:00;101050.58;;;27.25;50.98
81905;BME280;71370;-33.792;151.032;2023-11-21T04:53:09;101054.11;;;27.23;50.86
81905;BME280;71370;-33.792;151.032;2023-11-21T04:54:19;101050.14;;;27.21;50.77
81905;BME280;71370;-33.792;151.032;2023-11-21T04:55:26;101049.34;;;27.20;50.82
81905;BME280;71370;-33.792;151.032;2023-11-21T04:56:34;101046.11;;;27.12;50.95
81905;BME280;71370;-33.792;151.032;2023-11-21T04:57:41;101048.38;;;27.04;51.09
81905;BME280;71370;-33.792;151.032;2023-11-21T04:58:48;101051.19;;;26.96;51.03
81905;BME280;71370;-33.792;151.032;2023-11-21T04:59:55;101054.27;;;26.89;51.01
81905;BME280;71370;-33.792;151.032;2023-11-21T05:01:03;101049.70;;;26.87;50.73
81905;BME280;71370;-33.792;151.032;2023-11-21T05:02:10;101047.70;;;26.85;51.06
81905;BME280;71370;-33.792;151.032;2023-11-21T05:03:18;101048.12;;;26.79;51.26
81905;BME280;71370;-33.792;151.032;2023-11-21T05:04:26;101049.15;;;26.75;51.63
81905;BME280;71370;-33.792;151.032;2023-11-21T05:05:33;101045.21;;;26.70;51.61
81905;BME280;71370;-33.792;151.032;2023-11-21T05:06:40;101051.89;;;26.70;51.87
81905;BME280;71370;-33.792;151.032;2023-11-21T05:07:47;101051.41;;;26.70;51.82
81905;BME280;71370;-33.792;151.032;2023-11-21T05:08:55;101051.38;;;26.63;52.15
81905;BME280;71370;-33.792;151.032;2023-11-21T05:10:03;101050.30;;;26.57;52.34
81905;BME280;71370;-33.792;151.032;2023-11-21T05:11:26;101050.54;;;26.54;52.56
81905;BME280;71370;-33.792;151.032;2023-11-21T05:12:34;101045.12;;;26.50;52.45
81905;BME280;71370;-33.792;151.032;2023-11-21T05:13:43;101043.77;;;26.44;52.80
81905;BME280;71370;-33.792;151.032;2023-11-21T05:14:51;101044.70;;;26.41;52.89
81905;BME280;71370;-33.792;151.032;2023-11-21T05:15:58;101047.50;;;26.37;52.87
81905;BME280;71370;-33.792;151.032;2023-11-21T05:17:05;101047.38;;;26.32;52.90
81905;BME280;71370;-33.792;151.032;2023-11-21T05:18:14;101049.24;;;26.26;52.66
81905;BME280;71370;-33.792;151.032;2023-11-21T05:19:21;101051.98;;;26.23;52.69
81905;BME280;71370;-33.792;151.032;2023-11-21T05:20:29;101054.09;;;26.24;52.72
81905;BME280;71370;-33.792;151.032;2023-11-21T05:21:36;101048.83;;;26.27;52.90
81905;BME280;71370;-33.792;151.032;2023-11-21T05:22:43;101050.44;;;26.34;52.82
81905;BME280;71370;-33.792;151.032;2023-11-21T05:23:50;101049.27;;;26.42;52.11
81905;BME280;71370;-33.792;151.032;2023-11-21T05:24:57;101045.02;;;26.49;52.12
81905;BME280;71370;-33.792;151.032;2023-11-21T05:26:05;101041.11;;;26.53;52.05
81905;BME280;71370;-33.792;151.032;2023-11-21T05:27:13;101047.64;;;26.52;52.06
81905;BME280;71370;-33.792;151.032;2023-11-21T05:28:20;101040.97;;;26.50;51.88
81905;BME280;71370;-33.792;151.032;2023-11-21T05:29:28;101041.14;;;26.50;52.03
81905;BME280;71370;-33.792;151.032;2023-11-21T05:30:35;101041.39;;;26.56;51.43
81905;BME280;71370;-33.792;151.032;2023-11-21T05:31:42;101038.16;;;26.61;51.66
81905;BME280;71370;-33.792;151.032;2023-11-21T05:32:49;101031.77;;;26.69;51.56
81905;BME280;71370;-33.792;151.032;2023-11-21T05:33:57;101031.66;;;26.80;51.65
81905;BME280;71370;-33.792;151.032;2023-11-21T05:35:04;101027.98;;;26.90;51.50
81905;BME280;71370;-33.792;151.032;2023-11-21T05:36:18;101029.80;;;26.97;50.87
81905;BME280;71370;-33.792;151.032;2023-11-21T05:37:25;101026.39;;;26.99;50.67
81905;BME280;71370;-33.792;151.032;2023-11-21T05:38:33;101026.05;;;26.99;50.72
81905;BME280;71370;-33.792;151.032;2023-11-21T05:39:41;101025.83;;;26.97;50.82
81905;BME280;71370;-33.792;151.032;2023-11-21T05:40:48;101025.56;;;26.91;50.78
81905;BME280;71370;-33.792;151.032;2023-11-21T05:41:55;101029.42;;;26.81;50.97